LYNI/INI METAR and TAF weather

Enter ICAO airport designator
Station Type Date Time Source
LYNI METAR 2019/12/09 22:00 UTC NOAA

LYNI 092200Z 11005KT 9000 NSC 02/01 Q1011 NOSIG


Station Type Date Time Source
LYNI Decoded METAR 2019/12/09 22:00 UTC NOAA

Nis, Serbia and Montenegro (LYNI) 43-20N 021-54E 202M
Dec 09, 2019 - 05:00 PM EST / 2019.12.09 2200 UTC
Wind: from the ESE (110 degrees) at 6 MPH (5 KT):0
Visibility: 5 mile(s):0
Temperature: 35 F (2 C)
Windchill: 30 F (-1 C):1
Dew Point: 33 F (1 C)
Relative Humidity: 93%
Pressure (altimeter): 29.85 in. Hg (1011 hPa)
ob: LYNI 092200Z 11005KT 9000 NSC 02/01 Q1011 NOSIG
cycle: 22

Station Type Date Time Source
LYNI TAF 2019/12/09 18:21 UTC NOAA

TAF LYNI 091700Z 0918/1018 18005KT 8000 NSC TX09/1013Z TN02/1005Z
TEMPO 0921/1007 3000 BR
BECMG 1009/1011 32015KT BKN010
TEMPO 1012/1018 5000 RA

Example: see airport list